Jackson Hole Airport
KJAC : now visible

Airfield :











YOU CAN JOIN US ON...

 
LOGIN :

Register | Disclaimer

   EN    FR    IT 

 









Legend :    VFR   Marginal VFR   IFR   Intensive IFR   Very Intensive IFR
Visi :
Ceiling :
>= 8 km
>= 3000ft
5 to 8 km
1000 to 3000 ft
1500m to 5 km
500 to 1000 ft
800 to 1500m
200 to 500 ft
< 800m
< 200 ft
Symbols :   Thunderstorms  Fog  Heavy snow  Heavy precipitations  Wind > 20 kt






- Airport Elevation : 6451 ft
- IATA code : JAC


KJAC - Jackson Hole

CURRENT METAR :
  • 120256Z 23007KT 9SM OVC035 M02/M04 A3007 RMK AO2 SLP251 60000 T10221039 53001

EXPIRED METARs :
  • 120156Z 29003KT 9SM OVC047 M03/M04 A3006 RMK AO2 SNE0059 SLP246 P0000 T10281039
  • 120056Z 23005KT 9SM -SN FEW030 OVC039 M02/M04 A3007 RMK AO2 UPB31E42SNE31B42 SLP249 P0000 T10171039

TAF KJAC
Valid from the 12 at 00:00 until the 13 at 00:00 UTC


112325Z 1200/1224 20009KT P6SM -SN SCT025 OVC035
TEMPO 1200/1202 5SM -SN SCT010 BKN025
FM120200 19009KT P6SM VCSH OVC025
FM120800 19010KT 4SM -SN SCT012 OVC025
FM121400 20011KT 2SM -SN SCT008 OVC015
FM121900 20012G20KT 2SM -SN SCT008 OVC015 AMD LTD TO CLD VIS AND WIND



MET'MAP, your aeronautical weather chart ! - Copyright ORBIFLY December 2007 - Disclaimer

ORBIFLY MET'MAP TEAM :

Programming & Development : Alexandra Zaïnal
Concept & original design : Baudouin d'Aumeries
Assistance for programming : Marc-Olivier Méhu
Technical & hardware support : Manuel Goepfert

Contact : metmap@orbifly.com




SOURCES & CREDITS :

   NOAA       Earth
Advisory